METAR Data
IDs: Format: Raw Decoded Include TAF

Data at: 1735 UTC 06 Jul 2020

KLUG 061715Z AUTO 00000KT 10SM FEW024 29/23 A3002 RMK A01
KLUG 061655Z AUTO 00000KT 10SM FEW021 29/24 A3002 RMK A01
KLUG 061635Z AUTO 00000KT 10SM FEW020 29/23 A3003 RMK A01
KLUG 061615Z AUTO 00000KT 10SM CLR 28/23 A3003 RMK A01
KLUG 061555Z AUTO 00000KT 10SM CLR 27/23 A3004 RMK A01
KLUG 061535Z AUTO VRB03KT 10SM CLR 27/23 A3003 RMK A01
KLUG 061515Z AUTO 00000KT 10SM CLR 27/23 A3003 RMK A01
KLUG 061455Z AUTO 00000KT 10SM CLR 27/23 A3003 RMK A01
KLUG 061435Z AUTO 00000KT 10SM CLR 27/23 A3003 RMK A01
KLUG 061415Z AUTO 00000KT 10SM CLR 26/23 A3003 RMK A01
KLUG 061355Z AUTO 01003KT 9SM FEW007 FEW065 25/23 A3003 RMK A01
KLUG 061335Z AUTO 00000KT 9SM BKN006 BKN060 24/23 A3003 RMK A01
KLUG 061315Z AUTO 00000KT 9SM BKN005 24/23 A3003 RMK A01
KLUG 061255Z AUTO 00000KT 8SM BKN004 BKN065 23/22 A3002 RMK A01
KLUG 061235Z AUTO 00000KT 6SM BR SCT003 BKN065 22/22 A3002 RMK A01
KLUG 061215Z AUTO 00000KT 6SM BR SCT003 OVC060 22/22 A3001 RMK A01
KLUG 061155Z AUTO 00000KT 8SM OVC060 21/21 A3000 RMK A01
KLUG 061135Z AUTO 00000KT 6SM BR OVC060 21/21 A2999 RMK A01
KLUG 061115Z AUTO 00000KT 5SM BR OVC065 20/20 A2999 RMK A01
KLUG 061055Z AUTO 00000KT 4SM BR SCT065 20/20 A2998 RMK A01
KLUG 061035Z AUTO 00000KT 6SM BR CLR 20/20 A2997 RMK A01
KLUG 061015Z AUTO 00000KT 6SM BR CLR 20/20 A2997 RMK A01
KLUG 060955Z AUTO 00000KT 6SM BR CLR 20/20 A2996 RMK A01
KLUG 060935Z AUTO 00000KT 4SM BR CLR 20/20 A2996 RMK A01
KLUG 060915Z AUTO 00000KT 2 1/2SM BR CLR 20/20 A2995 RMK A01 VIS 1 1/4V4
KLUG 060855Z AUTO 00000KT 4SM BR CLR 20/20 A2995 RMK A01
KLUG 060835Z AUTO 00000KT 6SM BR CLR 20/20 A2994 RMK A01
KLUG 060815Z AUTO 00000KT 8SM 20/20 A2994 RMK A01
KLUG 060755Z AUTO 00000KT 8SM 20/20 A2993 RMK A01
KLUG 060735Z AUTO 00000KT 9SM CLR 20/20 A2994 RMK A01
KLUG 060715Z AUTO 00000KT 10SM CLR 21/21 A2994 RMK A01
KLUG 060655Z AUTO 00000KT 10SM CLR 21/21 A2994 RMK A01
KLUG 060635Z AUTO 00000KT 10SM CLR 21/21 A2994 RMK A01
KLUG 060615Z AUTO 00000KT 9SM CLR 21/21 A2995 RMK A01
KLUG 060555Z AUTO 00000KT 8SM CLR 21/21 A2995 RMK A01
KLUG 060535Z AUTO 00000KT 6SM BR CLR 21/21 A2995 RMK A01
KLUG 060515Z AUTO 00000KT 7SM CLR 21/21 A2996 RMK A01
KLUG 060455Z AUTO 00000KT 8SM 21/21 A2996 RMK A01
KLUG 060435Z AUTO 00000KT 9SM 21/21 A2997 RMK A01
KLUG 060415Z AUTO 00000KT 9SM FEW050 FEW060 FEW120 21/21 A2997 RMK A01
KLUG 060355Z AUTO 00000KT 10SM 21/21 A2998 RMK A01
KLUG 060335Z AUTO 00000KT 10SM 21/21 A2998 RMK A01
KLUG 060315Z AUTO 00000KT 10SM 21/21 A2998 RMK A01
KLUG 060255Z AUTO 00000KT 10SM 21/21 A2998 RMK A01 P0001
KLUG 060235Z AUTO 00000KT 10SM 21/21 A2998 RMK A01
KLUG 060215Z AUTO 00000KT 10SM SCT028 BKN042 OVC050 21/20 A2998 RMK A01
KLUG 060155Z AUTO 20004KT 10SM 20/20 A2998 RMK A01 P0001
KLUG 060135Z AUTO 00000KT 10SM 20/20 A2996 RMK A01
KLUG 060115Z AUTO 01004KT 10SM 21/20 A2996 RMK A01
KLUG 060055Z AUTO 06003KT 6SM BR SCT040 BKN048 OVC110 21/20 A2995 RMK A01 P0003
KLUG 060035Z AUTO 34003KT 9SM FEW035 SCT075 BKN110 21/20 A2996 RMK A01
KLUG 060015Z AUTO 00000KT 10SM FEW027 FEW034 SCT040 21/19 A2995 RMK A01
KLUG 052355Z AUTO 23005KT 8SM FEW003 BKN034 OVC060 21/19 A2994 RMK A01 P0011
KLUG 052335Z AUTO 14014G24KT 2 1/2SM HZ FEW024 BKN055 OVC070 23/19 A2996 RMK A01
KLUG 052315Z AUTO 12008KT 10SM FEW048 SCT055 BKN065 25/20 A2996 RMK A01
KLUG 052255Z AUTO 01013G19KT 10SM FEW042 SCT048 BKN055 25/21 A2991 RMK A01
KLUG 052235Z AUTO VRB05KT 10SM SCT049 SCT060 27/22 A2991 RMK A01
KLUG 052215Z AUTO 00000KT 10SM SCT049 SCT070 SCT080 28/22 A2989 RMK A01
KLUG 052155Z AUTO VRB05KT 10SM FEW047 SCT050 SCT085 29/22 A2989 RMK A01
KLUG 052135Z AUTO VRB03G10KT 10SM FEW048 30/23 A2989 RMK A01
KLUG 052115Z AUTO 00000KT 10SM CLR 32/23 A2988 RMK A01
KLUG 052055Z AUTO 00000KT 10SM CLR 32/22 A2989 RMK A01
KLUG 052035Z AUTO 00000KT 10SM FEW047 33/23 A2989 RMK A01
KLUG 052015Z AUTO 00000KT 10SM SCT046 32/22 A2990 RMK A01
KLUG 051955Z AUTO 00000KT 10SM CLR 33/22 A2990 RMK A01
KLUG 051935Z AUTO 12004KT 10SM FEW041 33/23 A2991 RMK A01
KLUG 051915Z AUTO 13006KT 10SM SCT041 33/23 A2991 RMK A01
KLUG 051855Z AUTO VRB03KT 10SM CLR 32/22 A2993 RMK A01
KLUG 051835Z AUTO 00000KT 10SM CLR 33/22 A2994 RMK A01
KLUG 051815Z AUTO VRB06KT 10SM FEW035 32/23 A2995 RMK A01
KLUG 051755Z AUTO 00000KT 10SM FEW035 32/23 A2995 RMK A01
KLUG 051735Z AUTO 00000KT 10SM FEW030 32/23 A2995 RMK A01
KLUG 051715Z AUTO VRB03KT 10SM FEW030 31/23 A2996 RMK A01
KLUG 051655Z AUTO 00000KT 10SM CLR 31/24 A2997 RMK A01
KLUG 051635Z AUTO 00000KT 10SM CLR 30/24 A2997 RMK A01
KLUG 051615Z AUTO 00000KT 10SM CLR 29/24 A2998 RMK A01
KLUG 051555Z AUTO VRB04KT 10SM CLR 30/24 A2999 RMK A01
KLUG 051535Z AUTO 00000KT 10SM CLR 29/24 A2998 RMK A01
KLUG 051515Z AUTO 00000KT 10SM CLR 28/24 A2998 RMK A01
KLUG 051455Z AUTO 00000KT 10SM CLR 26/24 A2998 RMK A01
KLUG 051435Z AUTO 00000KT 9SM CLR 25/24 A2998 RMK A01
KLUG 051415Z AUTO 00000KT 8SM CLR 25/23 A2998 RMK A01
KLUG 051355Z AUTO 00000KT 8SM CLR 24/23 A2998 RMK A01
KLUG 051335Z AUTO 00000KT 6SM BR FEW004 23/23 A2998 RMK A01
KLUG 051315Z AUTO 00000KT 5SM BR FEW004 23/23 A2997 RMK A01
KLUG 051255Z AUTO 00000KT 6SM BR CLR 22/22 A2997 RMK A01
KLUG 051235Z AUTO 00000KT 4SM BR CLR 22/22 A2997 RMK A01
KLUG 051215Z AUTO 00000KT 3SM BR CLR 22/22 A2996 RMK A01
KLUG 051155Z AUTO 00000KT 2 1/2SM BR CLR 21/21 A2995 RMK A01
KLUG 051135Z AUTO 00000KT 2 1/2SM BR CLR 21/21 A2994 RMK A01
KLUG 051115Z AUTO 04003KT 2 1/2SM BR CLR 21/21 A2994 RMK A01
KLUG 051055Z AUTO 00000KT 2SM BR CLR 20/20 A2993 RMK A01
KLUG 051035Z AUTO 00000KT 2 1/2SM BR CLR 21/21 A2992 RMK A01
KLUG 051015Z AUTO 00000KT 1SM BR CLR 21/21 A2992 RMK A01
KLUG 050955Z AUTO 00000KT 2 1/2SM BR CLR 21/21 A2991 RMK A01
KLUG 050935Z AUTO 00000KT 1 3/4SM BR CLR 21/21 A2991 RMK A01
KLUG 050915Z AUTO 00000KT 1/4SM FG 21/21 A2991 RMK A01
KLUG 050855Z AUTO 00000KT 1/2SM BR 21/21 A2991 RMK A01
KLUG 050835Z AUTO 00000KT 1/2SM FG 21/21 A2991 RMK A01
KLUG 050815Z AUTO 00000KT 1 1/4SM BR CLR 21/21 A2991 RMK A01
KLUG 050755Z AUTO 00000KT 2SM BR CLR 21/21 A2991 RMK A01
KLUG 050735Z AUTO 00000KT 2SM BR FEW120 22/22 A2991 RMK A01
KLUG 050715Z AUTO 00000KT 2SM BR 22/22 A2991 RMK A01
KLUG 050655Z AUTO 00000KT 2SM BR 22/22 A2992 RMK A01
KLUG 050635Z AUTO 00000KT 1 3/4SM BR 22/22 A2992 RMK A01
KLUG 050615Z AUTO 00000KT 1 3/4SM BR 22/22 A2992 RMK A01
KLUG 050555Z AUTO 00000KT 2SM BR CLR 22/22 A2993 RMK A01